Ida — C4CZ2 — position and weather

sailwx.info

Track history (hours):
 
Tides and Currents Weather Stations Pressure Air Temp Water Temp Dewpoint Dewpoint Depression Visibility Wind Speed Wind Dir Waves Ship Positions

Ida

Last reported at 2017-Feb-21 23:33 UTC. Time now 2017-Feb-21 23:33 UTC.
Position N 54°25' E 011°54'.

Length 82 m; draft 3.7 m.

Type: Cargo ship. MMSI: 210319000.

Date/timePositionNaut miles runAvg speedWind from/ knotsBaromVisibWave heightAir tempDewpointWater temp
2017-Feb-21 23:33N 54°25' E 011°54'1010.4
2017-Feb-21 22:33N 54°27' E 011°37'1010.5
2017-Feb-21 21:34N 54°32' E 011°20'1110.8
2017-Feb-21 20:33N 54°35' E 011°02'1010.3
2017-Feb-21 19:33N 54°34' E 010°45'58 7.1
2017-Feb-21 11:25N 54°05' E 009°19'7 8.4
2017-Feb-21 10:33N 53°58' E 009°15'6 5.7
2017-Feb-21 09:34N 53°54' E 009°09'0 0.2
2017-Feb-21 08:33N 53°54' E 009°09'8 8.0
2017-Feb-21 07:34N 53°51' E 008°56'10 9.6
2017-Feb-21 06:33N 53°55' E 008°41'1010.3
2017-Feb-21 05:33N 53°59' E 008°25'1010.1
2017-Feb-21 04:33N 53°59' E 008°08'10 9.8
2017-Feb-21 03:33N 53°57' E 007°52'  
2017-Feb-18 17:05N 53°27' E 006°49'85 8.9
2017-Feb-18 07:26N 53°08' E 004°30'1011.1
2017-Feb-18 06:33N 52°59' E 004°22'99 9.0
2017-Feb-17 19:33N 52°34' E 001°44'1 0.6
2017-Feb-17 18:31N 52°35' E 001°44'0 0.0
2017-Feb-17 17:31N 52°35' E 001°44'0 0.0
2017-Feb-17 16:31N 52°35' E 001°44'0 0.0
2017-Feb-17 15:31N 52°35' E 001°44'0 0.0
2017-Feb-17 14:31N 52°35' E 001°44'0 0.0
2017-Feb-17 13:31N 52°35' E 001°44'0 0.0
2017-Feb-17 12:31N 52°35' E 001°44'0 0.0
2017-Feb-17 11:31N 52°35' E 001°44'0 0.0
2017-Feb-17 10:31N 52°35' E 001°44'0 0.0
2017-Feb-17 09:31N 52°35' E 001°44'0 0.0
2017-Feb-17 08:31N 52°35' E 001°44'0 0.0
2017-Feb-17 07:31N 52°35' E 001°44'0 0.0
2017-Feb-17 06:31N 52°35' E 001°44'0 0.0
2017-Feb-17 05:31N 52°35' E 001°44'0 0.0
2017-Feb-17 04:31N 52°35' E 001°44'0 0.0
2017-Feb-17 03:31N 52°35' E 001°44'0 0.0
2017-Feb-17 02:31N 52°35' E 001°44'0 0.0
2017-Feb-17 01:31N 52°35' E 001°44'0 0.0
2017-Feb-17 00:31N 52°35' E 001°44'0 0.0
2017-Feb-16 23:31N 52°35' E 001°44'0 0.0
2017-Feb-16 22:31N 52°35' E 001°44'0 0.0
2017-Feb-16 21:31N 52°35' E 001°44'0 0.0
2017-Feb-16 20:31N 52°35' E 001°44'0 0.0
2017-Feb-16 19:25N 52°35' E 001°44'8 1.3
2017-Feb-16 13:22N 52°42' E 001°47'911.1
2017-Feb-16 12:33N 52°50' E 001°39'1211.5
2017-Feb-16 11:33N 52°60' E 001°29'7810.6
2017-Feb-16 04:13N 54°05' E 000°18'6 9.1
2017-Feb-16 03:33N 54°10' E 000°12'9 8.6
2017-Feb-16 02:33N 54°18' E 000°05'8 8.3
2017-Feb-16 01:33N 54°25' W 000°03'8 8.3
2017-Feb-16 00:34N 54°32' W 000°10'8 8.3
2017-Feb-15 23:33N 54°39' W 000°18'61 9.6
2017-Feb-15 17:10N 55°31' W 001°14'710.1
2017-Feb-15 16:25N 55°37' W 001°21'22 9.8
2017-Feb-15 14:10N 55°54' W 001°46'14 8.1
2017-Feb-15 12:23N 56°05' W 002°02'7 8.3
2017-Feb-15 11:33N 56°11' W 002°10'8 8.3
2017-Feb-15 10:33N 56°17' W 002°20'8 8.5
2017-Feb-15 09:33N 56°24' W 002°30'8 7.8
2017-Feb-15 08:33N 56°27' W 002°42'1311.5
2017-Feb-15 07:27N 56°24' W 003°05'8 9.1
2017-Feb-15 06:33N 56°22' W 003°19'3 0.1
2017-Feb-13 16:33N 56°23' W 003°23'7 6.9
2017-Feb-13 15:33N 56°23' W 003°10'1110.0
2017-Feb-13 14:28N 56°27' W 002°52'9 9.9
2017-Feb-13 13:33N 56°28' W 002°36'5 4.9
2017-Feb-13 12:33N 56°29' W 002°27'8 8.4
2017-Feb-13 11:33N 56°29' W 002°12'4 4.3
2017-Feb-13 10:33N 56°29' W 002°20'6 6.2
2017-Feb-13 09:33N 56°29' W 002°31'3 3.4
2017-Feb-13 08:33N 56°30' W 002°25'8 8.1
2017-Feb-13 07:33N 56°31' W 002°11'8 8.2
2017-Feb-13 06:33N 56°33' W 001°56'9 8.5
2017-Feb-13 05:28N 56°33' W 001°40'  
Track history (hours):
 
Tides and Currents Weather Stations Pressure Air Temp Water Temp Dewpoint Dewpoint Depression Visibility Wind Speed Wind Dir Waves Ship Positions

Ida

Last reported at 2017-Feb-21 23:33 UTC. Time now 2017-Feb-21 23:33 UTC.
Position N 54°25' E 011°54'.

Length 82 m; draft 3.7 m.

Type: Cargo ship. MMSI: 210319000.

Date/timePositionNaut miles runAvg speedWind from/ knotsBaromVisibWave heightAir tempDewpointWater temp
2017-Feb-21 23:33N 54°25' E 011°54'1010.4
2017-Feb-21 22:33N 54°27' E 011°37'1010.5
2017-Feb-21 21:34N 54°32' E 011°20'1110.8
2017-Feb-21 20:33N 54°35' E 011°02'1010.3
2017-Feb-21 19:33N 54°34' E 010°45'58 7.1
2017-Feb-21 11:25N 54°05' E 009°19'7 8.4
2017-Feb-21 10:33N 53°58' E 009°15'6 5.7
2017-Feb-21 09:34N 53°54' E 009°09'0 0.2
2017-Feb-21 08:33N 53°54' E 009°09'8 8.0
2017-Feb-21 07:34N 53°51' E 008°56'10 9.6
2017-Feb-21 06:33N 53°55' E 008°41'1010.3
2017-Feb-21 05:33N 53°59' E 008°25'1010.1
2017-Feb-21 04:33N 53°59' E 008°08'10 9.8
2017-Feb-21 03:33N 53°57' E 007°52'  
2017-Feb-18 17:05N 53°27' E 006°49'85 8.9
2017-Feb-18 07:26N 53°08' E 004°30'1011.1
2017-Feb-18 06:33N 52°59' E 004°22'99 9.0
2017-Feb-17 19:33N 52°34' E 001°44'1 0.6
2017-Feb-17 18:31N 52°35' E 001°44'0 0.0
2017-Feb-17 17:31N 52°35' E 001°44'0 0.0
2017-Feb-17 16:31N 52°35' E 001°44'0 0.0
2017-Feb-17 15:31N 52°35' E 001°44'0 0.0
2017-Feb-17 14:31N 52°35' E 001°44'0 0.0
2017-Feb-17 13:31N 52°35' E 001°44'0 0.0
2017-Feb-17 12:31N 52°35' E 001°44'0 0.0
2017-Feb-17 11:31N 52°35' E 001°44'0 0.0
2017-Feb-17 10:31N 52°35' E 001°44'0 0.0
2017-Feb-17 09:31N 52°35' E 001°44'0 0.0
2017-Feb-17 08:31N 52°35' E 001°44'0 0.0
2017-Feb-17 07:31N 52°35' E 001°44'0 0.0
2017-Feb-17 06:31N 52°35' E 001°44'0 0.0
2017-Feb-17 05:31N 52°35' E 001°44'0 0.0
2017-Feb-17 04:31N 52°35' E 001°44'0 0.0
2017-Feb-17 03:31N 52°35' E 001°44'0 0.0
2017-Feb-17 02:31N 52°35' E 001°44'0 0.0
2017-Feb-17 01:31N 52°35' E 001°44'0 0.0
2017-Feb-17 00:31N 52°35' E 001°44'0 0.0
2017-Feb-16 23:31N 52°35' E 001°44'0 0.0
2017-Feb-16 22:31N 52°35' E 001°44'0 0.0
2017-Feb-16 21:31N 52°35' E 001°44'0 0.0
2017-Feb-16 20:31N 52°35' E 001°44'0 0.0
2017-Feb-16 19:25N 52°35' E 001°44'8 1.3
2017-Feb-16 13:22N 52°42' E 001°47'911.1
2017-Feb-16 12:33N 52°50' E 001°39'1211.5
2017-Feb-16 11:33N 52°60' E 001°29'7810.6
2017-Feb-16 04:13N 54°05' E 000°18'6 9.1
2017-Feb-16 03:33N 54°10' E 000°12'9 8.6
2017-Feb-16 02:33N 54°18' E 000°05'8 8.3
2017-Feb-16 01:33N 54°25' W 000°03'8 8.3
2017-Feb-16 00:34N 54°32' W 000°10'8 8.3
2017-Feb-15 23:33N 54°39' W 000°18'61 9.6
2017-Feb-15 17:10N 55°31' W 001°14'710.1
2017-Feb-15 16:25N 55°37' W 001°21'22 9.8
2017-Feb-15 14:10N 55°54' W 001°46'14 8.1
2017-Feb-15 12:23N 56°05' W 002°02'7 8.3
2017-Feb-15 11:33N 56°11' W 002°10'8 8.3
2017-Feb-15 10:33N 56°17' W 002°20'8 8.5
2017-Feb-15 09:33N 56°24' W 002°30'8 7.8
2017-Feb-15 08:33N 56°27' W 002°42'1311.5
2017-Feb-15 07:27N 56°24' W 003°05'8 9.1
2017-Feb-15 06:33N 56°22' W 003°19'3 0.1
2017-Feb-13 16:33N 56°23' W 003°23'7 6.9
2017-Feb-13 15:33N 56°23' W 003°10'1110.0
2017-Feb-13 14:28N 56°27' W 002°52'9 9.9
2017-Feb-13 13:33N 56°28' W 002°36'5 4.9
2017-Feb-13 12:33N 56°29' W 002°27'8 8.4
2017-Feb-13 11:33N 56°29' W 002°12'4 4.3
2017-Feb-13 10:33N 56°29' W 002°20'6 6.2
2017-Feb-13 09:33N 56°29' W 002°31'3 3.4
2017-Feb-13 08:33N 56°30' W 002°25'8 8.1
2017-Feb-13 07:33N 56°31' W 002°11'8 8.2
2017-Feb-13 06:33N 56°33' W 001°56'9 8.5
2017-Feb-13 05:28N 56°33' W 001°40'  

Dump ship's entire track history